sensor_id;sensor_type;location;lat;lon;timestamp;temperature;humidity
22006;DHT22;11167;46.988;15.470;2023-08-17T00:00:07;24.20;75.70
22006;DHT22;11167;46.988;15.470;2023-08-17T00:02:13;24.10;75.70
22006;DHT22;11167;46.988;15.470;2023-08-17T00:04:14;24.10;75.70
22006;DHT22;11167;46.988;15.470;2023-08-17T00:06:18;24.10;75.80
22006;DHT22;11167;46.988;15.470;2023-08-17T00:08:19;24.10;75.80
22006;DHT22;11167;46.988;15.470;2023-08-17T00:10:20;24.00;75.80
22006;DHT22;11167;46.988;15.470;2023-08-17T00:12:20;24.00;75.80
22006;DHT22;11167;46.988;15.470;2023-08-17T00:14:21;24.00;75.80
22006;DHT22;11167;46.988;15.470;2023-08-17T00:16:22;24.00;75.80
22006;DHT22;11167;46.988;15.470;2023-08-17T00:18:24;23.90;75.80
22006;DHT22;11167;46.988;15.470;2023-08-17T00:20:24;23.90;75.80
22006;DHT22;11167;46.988;15.470;2023-08-17T00:22:25;23.90;75.80
22006;DHT22;11167;46.988;15.470;2023-08-17T00:24:26;23.90;75.80
22006;DHT22;11167;46.988;15.470;2023-08-17T00:26:27;23.90;75.90
22006;DHT22;11167;46.988;15.470;2023-08-17T00:28:28;23.80;75.90
22006;DHT22;11167;46.988;15.470;2023-08-17T00:30:29;23.80;75.90
22006;DHT22;11167;46.988;15.470;2023-08-17T00:32:30;23.80;75.90
22006;DHT22;11167;46.988;15.470;2023-08-17T00:34:31;23.80;75.90
22006;DHT22;11167;46.988;15.470;2023-08-17T00:36:32;23.80;75.90
22006;DHT22;11167;46.988;15.470;2023-08-17T00:38:32;23.80;76.00
22006;DHT22;11167;46.988;15.470;2023-08-17T00:40:34;23.80;76.00
22006;DHT22;11167;46.988;15.470;2023-08-17T00:42:34;23.70;76.00
22006;DHT22;11167;46.988;15.470;2023-08-17T00:44:35;23.70;76.00
22006;DHT22;11167;46.988;15.470;2023-08-17T00:46:36;23.70;76.00
22006;DHT22;11167;46.988;15.470;2023-08-17T00:48:38;23.70;76.00
22006;DHT22;11167;46.988;15.470;2023-08-17T00:50:39;23.70;76.20
22006;DHT22;11167;46.988;15.470;2023-08-17T00:52:40;23.70;76.00
22006;DHT22;11167;46.988;15.470;2023-08-17T00:54:42;23.60;76.00
22006;DHT22;11167;46.988;15.470;2023-08-17T00:56:43;23.60;76.10
22006;DHT22;11167;46.988;15.470;2023-08-17T00:58:44;23.60;76.00
22006;DHT22;11167;46.988;15.470;2023-08-17T01:00:44;23.50;76.00
22006;DHT22;11167;46.988;15.470;2023-08-17T01:02:46;23.50;76.00
22006;DHT22;11167;46.988;15.470;2023-08-17T01:04:47;23.50;76.10
22006;DHT22;11167;46.988;15.470;2023-08-17T01:06:48;23.50;76.10
22006;DHT22;11167;46.988;15.470;2023-08-17T01:08:48;23.50;76.10
22006;DHT22;11167;46.988;15.470;2023-08-17T01:10:55;23.50;76.10
22006;DHT22;11167;46.988;15.470;2023-08-17T01:15:04;23.50;76.20
22006;DHT22;11167;46.988;15.470;2023-08-17T01:19:29;23.40;76.20
22006;DHT22;11167;46.988;15.470;2023-08-17T01:21:23;23.40;76.20
22006;DHT22;11167;46.988;15.470;2023-08-17T01:23:25;23.40;76.30
22006;DHT22;11167;46.988;15.470;2023-08-17T01:25:25;23.40;76.40
22006;DHT22;11167;46.988;15.470;2023-08-17T01:27:33;23.30;76.20
22006;DHT22;11167;46.988;15.470;2023-08-17T01:29:29;23.30;76.20
22006;DHT22;11167;46.988;15.470;2023-08-17T01:31:34;23.30;76.30
22006;DHT22;11167;46.988;15.470;2023-08-17T01:35:38;23.30;76.40
22006;DHT22;11167;46.988;15.470;2023-08-17T01:37:40;23.20;76.30
22006;DHT22;11167;46.988;15.470;2023-08-17T01:39:43;23.20;76.50
22006;DHT22;11167;46.988;15.470;2023-08-17T01:41:45;23.20;76.50
22006;DHT22;11167;46.988;15.470;2023-08-17T01:43:47;23.20;76.40
22006;DHT22;11167;46.988;15.470;2023-08-17T01:45:49;23.10;76.30
22006;DHT22;11167;46.988;15.470;2023-08-17T01:47:50;23.20;76.40
22006;DHT22;11167;46.988;15.470;2023-08-17T01:49:51;23.10;76.40
22006;DHT22;11167;46.988;15.470;2023-08-17T01:51:52;23.10;76.40
22006;DHT22;11167;46.988;15.470;2023-08-17T01:53:53;23.10;76.40
22006;DHT22;11167;46.988;15.470;2023-08-17T01:55:55;23.10;76.40
22006;DHT22;11167;46.988;15.470;2023-08-17T01:57:56;23.10;76.50
22006;DHT22;11167;46.988;15.470;2023-08-17T01:59:57;23.10;76.60
22006;DHT22;11167;46.988;15.470;2023-08-17T02:01:58;23.10;76.50
22006;DHT22;11167;46.988;15.470;2023-08-17T02:03:58;23.00;76.50
22006;DHT22;11167;46.988;15.470;2023-08-17T02:06:01;23.00;76.50
22006;DHT22;11167;46.988;15.470;2023-08-17T02:08:02;23.00;77.30
22006;DHT22;11167;46.988;15.470;2023-08-17T02:10:03;23.00;76.50
22006;DHT22;11167;46.988;15.470;2023-08-17T02:12:05;23.00;76.50
22006;DHT22;11167;46.988;15.470;2023-08-17T02:14:06;23.00;76.50
22006;DHT22;11167;46.988;15.470;2023-08-17T02:16:06;22.90;76.50
22006;DHT22;11167;46.988;15.470;2023-08-17T02:18:07;22.90;76.50
22006;DHT22;11167;46.988;15.470;2023-08-17T02:20:09;22.90;76.50
22006;DHT22;11167;46.988;15.470;2023-08-17T02:22:10;22.90;76.60
22006;DHT22;11167;46.988;15.470;2023-08-17T02:24:11;22.90;77.50
22006;DHT22;11167;46.988;15.470;2023-08-17T02:26:11;22.80;76.50
22006;DHT22;11167;46.988;15.470;2023-08-17T02:28:12;22.80;76.50
22006;DHT22;11167;46.988;15.470;2023-08-17T02:30:13;22.80;76.50
22006;DHT22;11167;46.988;15.470;2023-08-17T02:32:14;22.80;76.60
22006;DHT22;11167;46.988;15.470;2023-08-17T02:34:15;22.80;76.60
22006;DHT22;11167;46.988;15.470;2023-08-17T02:36:16;22.80;76.60
22006;DHT22;11167;46.988;15.470;2023-08-17T02:38:17;22.80;76.60
22006;DHT22;11167;46.988;15.470;2023-08-17T02:40:18;22.70;76.50
22006;DHT22;11167;46.988;15.470;2023-08-17T02:42:19;22.70;76.60
22006;DHT22;11167;46.988;15.470;2023-08-17T02:44:20;22.70;76.60
22006;DHT22;11167;46.988;15.470;2023-08-17T02:46:21;22.70;76.60
22006;DHT22;11167;46.988;15.470;2023-08-17T02:48:22;22.70;76.60
22006;DHT22;11167;46.988;15.470;2023-08-17T02:50:23;22.60;76.60
22006;DHT22;11167;46.988;15.470;2023-08-17T02:52:23;22.60;76.60
22006;DHT22;11167;46.988;15.470;2023-08-17T02:54:24;22.60;76.60
22006;DHT22;11167;46.988;15.470;2023-08-17T02:56:25;22.60;76.60
22006;DHT22;11167;46.988;15.470;2023-08-17T02:58:26;22.60;76.60
22006;DHT22;11167;46.988;15.470;2023-08-17T03:00:28;22.60;76.70
22006;DHT22;11167;46.988;15.470;2023-08-17T03:02:29;22.60;76.80
22006;DHT22;11167;46.988;15.470;2023-08-17T03:04:30;22.60;77.60
22006;DHT22;11167;46.988;15.470;2023-08-17T03:06:30;22.50;76.70
22006;DHT22;11167;46.988;15.470;2023-08-17T03:08:31;22.50;76.80
22006;DHT22;11167;46.988;15.470;2023-08-17T03:10:33;22.50;76.70
22006;DHT22;11167;46.988;15.470;2023-08-17T03:12:35;22.50;76.70
22006;DHT22;11167;46.988;15.470;2023-08-17T03:14:37;22.50;76.90
22006;DHT22;11167;46.988;15.470;2023-08-17T03:16:38;22.50;76.80
22006;DHT22;11167;46.988;15.470;2023-08-17T03:18:39;22.50;76.80
22006;DHT22;11167;46.988;15.470;2023-08-17T03:20:40;22.40;76.80
22006;DHT22;11167;46.988;15.470;2023-08-17T03:22:41;22.40;76.80
22006;DHT22;11167;46.988;15.470;2023-08-17T03:24:42;22.40;76.80
22006;DHT22;11167;46.988;15.470;2023-08-17T03:26:43;22.40;76.90
22006;DHT22;11167;46.988;15.470;2023-08-17T03:28:44;22.40;76.90
22006;DHT22;11167;46.988;15.470;2023-08-17T03:30:45;22.40;76.90
22006;DHT22;11167;46.988;15.470;2023-08-17T03:32:46;22.40;76.90
22006;DHT22;11167;46.988;15.470;2023-08-17T03:34:47;22.30;76.90
22006;DHT22;11167;46.988;15.470;2023-08-17T03:36:48;22.40;77.90
22006;DHT22;11167;46.988;15.470;2023-08-17T03:38:49;22.30;76.90
22006;DHT22;11167;46.988;15.470;2023-08-17T03:40:50;22.30;77.00
22006;DHT22;11167;46.988;15.470;2023-08-17T03:42:51;22.30;77.10
22006;DHT22;11167;46.988;15.470;2023-08-17T03:44:52;22.30;77.20
22006;DHT22;11167;46.988;15.470;2023-08-17T03:46:53;22.20;77.10
22006;DHT22;11167;46.988;15.470;2023-08-17T03:48:54;22.20;77.10
22006;DHT22;11167;46.988;15.470;2023-08-17T03:50:55;22.20;77.20
22006;DHT22;11167;46.988;15.470;2023-08-17T03:52:56;22.20;77.20
22006;DHT22;11167;46.988;15.470;2023-08-17T03:54:57;22.20;77.30
22006;DHT22;11167;46.988;15.470;2023-08-17T03:56:58;22.20;77.30
22006;DHT22;11167;46.988;15.470;2023-08-17T03:58:59;22.20;77.30
22006;DHT22;11167;46.988;15.470;2023-08-17T04:01:00;22.20;77.30
22006;DHT22;11167;46.988;15.470;2023-08-17T04:03:01;22.20;77.40
22006;DHT22;11167;46.988;15.470;2023-08-17T04:05:01;22.20;77.30
22006;DHT22;11167;46.988;15.470;2023-08-17T04:07:03;22.10;77.30
22006;DHT22;11167;46.988;15.470;2023-08-17T04:09:04;22.10;77.30
22006;DHT22;11167;46.988;15.470;2023-08-17T04:11:05;22.10;77.30
22006;DHT22;11167;46.988;15.470;2023-08-17T04:13:06;22.10;77.30
22006;DHT22;11167;46.988;15.470;2023-08-17T04:15:07;22.10;77.30
22006;DHT22;11167;46.988;15.470;2023-08-17T04:17:07;22.10;77.30
22006;DHT22;11167;46.988;15.470;2023-08-17T04:19:08;22.00;77.30
22006;DHT22;11167;46.988;15.470;2023-08-17T04:21:09;22.00;77.30
22006;DHT22;11167;46.988;15.470;2023-08-17T04:23:10;22.00;77.30
22006;DHT22;11167;46.988;15.470;2023-08-17T04:25:12;22.00;77.40
22006;DHT22;11167;46.988;15.470;2023-08-17T04:27:13;22.00;77.40
22006;DHT22;11167;46.988;15.470;2023-08-17T04:29:14;22.00;77.50
22006;DHT22;11167;46.988;15.470;2023-08-17T04:31:15;22.00;77.50
22006;DHT22;11167;46.988;15.470;2023-08-17T04:33:18;21.90;77.50
22006;DHT22;11167;46.988;15.470;2023-08-17T04:37:23;21.90;77.40
22006;DHT22;11167;46.988;15.470;2023-08-17T04:39:24;21.90;77.50
22006;DHT22;11167;46.988;15.470;2023-08-17T04:41:25;21.90;77.50
22006;DHT22;11167;46.988;15.470;2023-08-17T04:43:26;21.90;77.50
22006;DHT22;11167;46.988;15.470;2023-08-17T04:45:27;21.90;77.50
22006;DHT22;11167;46.988;15.470;2023-08-17T04:47:27;21.90;77.50
22006;DHT22;11167;46.988;15.470;2023-08-17T04:49:28;21.90;77.50
22006;DHT22;11167;46.988;15.470;2023-08-17T04:51:30;21.90;77.60
22006;DHT22;11167;46.988;15.470;2023-08-17T04:53:31;21.80;77.50
22006;DHT22;11167;46.988;15.470;2023-08-17T04:55:31;21.80;77.50
22006;DHT22;11167;46.988;15.470;2023-08-17T04:57:33;21.80;77.50
22006;DHT22;11167;46.988;15.470;2023-08-17T04:59:34;21.80;77.70
22006;DHT22;11167;46.988;15.470;2023-08-17T05:01:35;21.80;77.60
22006;DHT22;11167;46.988;15.470;2023-08-17T05:03:36;21.80;77.60
22006;DHT22;11167;46.988;15.470;2023-08-17T05:05:37;21.80;77.60
22006;DHT22;11167;46.988;15.470;2023-08-17T05:07:39;21.80;77.70
22006;DHT22;11167;46.988;15.470;2023-08-17T05:09:40;21.80;77.70
22006;DHT22;11167;46.988;15.470;2023-08-17T05:11:41;21.70;77.60
22006;DHT22;11167;46.988;15.470;2023-08-17T05:13:43;21.70;78.40
22006;DHT22;11167;46.988;15.470;2023-08-17T05:15:44;21.70;77.70
22006;DHT22;11167;46.988;15.470;2023-08-17T05:17:44;21.70;77.70
22006;DHT22;11167;46.988;15.470;2023-08-17T05:19:46;21.70;77.70
22006;DHT22;11167;46.988;15.470;2023-08-17T05:21:47;21.70;77.70
22006;DHT22;11167;46.988;15.470;2023-08-17T05:23:50;21.70;77.90
22006;DHT22;11167;46.988;15.470;2023-08-17T05:25:51;21.60;77.70
22006;DHT22;11167;46.988;15.470;2023-08-17T05:27:52;21.60;77.70
22006;DHT22;11167;46.988;15.470;2023-08-17T05:29:54;21.70;77.90
22006;DHT22;11167;46.988;15.470;2023-08-17T05:31:54;21.60;78.60
22006;DHT22;11167;46.988;15.470;2023-08-17T05:33:55;21.60;77.80
22006;DHT22;11167;46.988;15.470;2023-08-17T05:35:56;21.60;77.80
22006;DHT22;11167;46.988;15.470;2023-08-17T05:37:57;21.60;77.80
22006;DHT22;11167;46.988;15.470;2023-08-17T05:39:58;21.60;77.80
22006;DHT22;11167;46.988;15.470;2023-08-17T05:41:59;21.60;77.80
22006;DHT22;11167;46.988;15.470;2023-08-17T05:44:00;21.60;77.80
22006;DHT22;11167;46.988;15.470;2023-08-17T05:46:01;21.50;77.90
22006;DHT22;11167;46.988;15.470;2023-08-17T05:48:03;21.50;77.80
22006;DHT22;11167;46.988;15.470;2023-08-17T05:50:04;21.50;77.80
22006;DHT22;11167;46.988;15.470;2023-08-17T05:52:06;21.50;77.80
22006;DHT22;11167;46.988;15.470;2023-08-17T05:54:07;21.50;77.90
22006;DHT22;11167;46.988;15.470;2023-08-17T05:56:08;21.50;78.00
22006;DHT22;11167;46.988;15.470;2023-08-17T05:58:09;21.50;77.90
22006;DHT22;11167;46.988;15.470;2023-08-17T06:00:10;21.50;78.70
22006;DHT22;11167;46.988;15.470;2023-08-17T06:02:12;21.50;77.90
22006;DHT22;11167;46.988;15.470;2023-08-17T06:04:13;21.50;78.50
22006;DHT22;11167;46.988;15.470;2023-08-17T06:06:14;21.50;78.00
22006;DHT22;11167;46.988;15.470;2023-08-17T06:08:15;21.50;78.00
22006;DHT22;11167;46.988;15.470;2023-08-17T06:10:15;21.50;77.90
22006;DHT22;11167;46.988;15.470;2023-08-17T06:12:16;21.40;77.90
22006;DHT22;11167;46.988;15.470;2023-08-17T06:14:18;21.40;77.90
22006;DHT22;11167;46.988;15.470;2023-08-17T06:16:18;21.40;78.00
22006;DHT22;11167;46.988;15.470;2023-08-17T06:18:19;21.40;77.90
22006;DHT22;11167;46.988;15.470;2023-08-17T06:20:21;21.40;77.90
22006;DHT22;11167;46.988;15.470;2023-08-17T06:22:22;21.40;78.00
22006;DHT22;11167;46.988;15.470;2023-08-17T06:24:23;21.40;78.00
22006;DHT22;11167;46.988;15.470;2023-08-17T06:26:23;21.40;77.90
22006;DHT22;11167;46.988;15.470;2023-08-17T06:28:25;21.40;77.90
22006;DHT22;11167;46.988;15.470;2023-08-17T06:30:26;21.40;77.90
22006;DHT22;11167;46.988;15.470;2023-08-17T06:32:27;21.40;78.00
22006;DHT22;11167;46.988;15.470;2023-08-17T06:34:28;21.40;78.00
22006;DHT22;11167;46.988;15.470;2023-08-17T06:36:30;21.40;78.00
22006;DHT22;11167;46.988;15.470;2023-08-17T06:38:32;21.40;77.90
22006;DHT22;11167;46.988;15.470;2023-08-17T06:40:33;21.30;77.80
22006;DHT22;11167;46.988;15.470;2023-08-17T06:42:34;21.30;77.80
22006;DHT22;11167;46.988;15.470;2023-08-17T06:44:35;21.30;77.80
22006;DHT22;11167;46.988;15.470;2023-08-17T06:46:36;21.30;77.90
22006;DHT22;11167;46.988;15.470;2023-08-17T06:48:37;21.30;77.80
22006;DHT22;11167;46.988;15.470;2023-08-17T06:50:38;21.30;77.70
22006;DHT22;11167;46.988;15.470;2023-08-17T06:52:39;21.30;77.80
22006;DHT22;11167;46.988;15.470;2023-08-17T06:54:40;21.30;77.70
22006;DHT22;11167;46.988;15.470;2023-08-17T06:56:41;21.30;77.80
22006;DHT22;11167;46.988;15.470;2023-08-17T06:58:42;21.30;77.80
22006;DHT22;11167;46.988;15.470;2023-08-17T07:00:43;21.30;77.80
22006;DHT22;11167;46.988;15.470;2023-08-17T07:02:44;21.30;77.80
22006;DHT22;11167;46.988;15.470;2023-08-17T07:04:45;21.30;77.80
22006;DHT22;11167;46.988;15.470;2023-08-17T07:06:46;21.30;77.80
22006;DHT22;11167;46.988;15.470;2023-08-17T07:08:47;21.30;77.70
22006;DHT22;11167;46.988;15.470;2023-08-17T07:10:48;21.30;77.70
22006;DHT22;11167;46.988;15.470;2023-08-17T07:12:49;21.30;77.60
22006;DHT22;11167;46.988;15.470;2023-08-17T07:14:50;21.30;77.70
22006;DHT22;11167;46.988;15.470;2023-08-17T07:16:50;21.30;77.60
22006;DHT22;11167;46.988;15.470;2023-08-17T07:18:51;21.30;77.60
22006;DHT22;11167;46.988;15.470;2023-08-17T07:20:52;21.30;77.60
22006;DHT22;11167;46.988;15.470;2023-08-17T07:22:53;21.30;77.60
22006;DHT22;11167;46.988;15.470;2023-08-17T07:24:54;21.30;77.60
22006;DHT22;11167;46.988;15.470;2023-08-17T07:26:55;21.30;77.60
22006;DHT22;11167;46.988;15.470;2023-08-17T07:28:56;21.30;77.70
22006;DHT22;11167;46.988;15.470;2023-08-17T07:30:57;21.30;77.60
22006;DHT22;11167;46.988;15.470;2023-08-17T07:32:58;21.30;77.70
22006;DHT22;11167;46.988;15.470;2023-08-17T07:34:59;21.30;77.70
22006;DHT22;11167;46.988;15.470;2023-08-17T07:36:59;21.30;77.70
22006;DHT22;11167;46.988;15.470;2023-08-17T07:39:00;21.30;77.80
22006;DHT22;11167;46.988;15.470;2023-08-17T07:41:01;21.30;77.80
22006;DHT22;11167;46.988;15.470;2023-08-17T07:43:02;21.30;77.80
22006;DHT22;11167;46.988;15.470;2023-08-17T07:45:04;21.30;77.80
22006;DHT22;11167;46.988;15.470;2023-08-17T07:47:06;21.30;77.80
22006;DHT22;11167;46.988;15.470;2023-08-17T07:49:07;21.30;77.90
22006;DHT22;11167;46.988;15.470;2023-08-17T07:51:08;21.30;77.90
22006;DHT22;11167;46.988;15.470;2023-08-17T07:53:09;21.30;78.00
22006;DHT22;11167;46.988;15.470;2023-08-17T07:55:10;21.40;78.10
22006;DHT22;11167;46.988;15.470;2023-08-17T07:57:12;21.40;78.20
22006;DHT22;11167;46.988;15.470;2023-08-17T07:59:12;21.40;78.20
22006;DHT22;11167;46.988;15.470;2023-08-17T08:01:13;21.40;78.30
22006;DHT22;11167;46.988;15.470;2023-08-17T08:03:14;21.40;78.30
22006;DHT22;11167;46.988;15.470;2023-08-17T08:05:15;21.40;78.40
22006;DHT22;11167;46.988;15.470;2023-08-17T08:07:16;21.40;78.50
22006;DHT22;11167;46.988;15.470;2023-08-17T08:09:17;21.40;78.70
22006;DHT22;11167;46.988;15.470;2023-08-17T08:11:18;21.40;78.70
22006;DHT22;11167;46.988;15.470;2023-08-17T08:13:19;21.40;78.70
22006;DHT22;11167;46.988;15.470;2023-08-17T08:15:20;21.40;78.90
22006;DHT22;11167;46.988;15.470;2023-08-17T08:17:21;21.50;79.00
22006;DHT22;11167;46.988;15.470;2023-08-17T08:19:22;21.40;79.00
22006;DHT22;11167;46.988;15.470;2023-08-17T08:21:23;21.50;79.10
22006;DHT22;11167;46.988;15.470;2023-08-17T08:23:25;21.50;79.30
22006;DHT22;11167;46.988;15.470;2023-08-17T08:25:26;21.50;79.40
22006;DHT22;11167;46.988;15.470;2023-08-17T08:27:27;21.50;79.50
22006;DHT22;11167;46.988;15.470;2023-08-17T08:29:28;21.50;79.50
22006;DHT22;11167;46.988;15.470;2023-08-17T08:31:29;21.60;79.50
22006;DHT22;11167;46.988;15.470;2023-08-17T08:33:30;21.60;79.60
22006;DHT22;11167;46.988;15.470;2023-08-17T08:35:31;21.60;79.70
22006;DHT22;11167;46.988;15.470;2023-08-17T08:37:32;21.60;79.80
22006;DHT22;11167;46.988;15.470;2023-08-17T08:39:33;21.60;79.80
22006;DHT22;11167;46.988;15.470;2023-08-17T08:41:36;21.60;79.80
22006;DHT22;11167;46.988;15.470;2023-08-17T08:45:54;21.60;80.00
22006;DHT22;11167;46.988;15.470;2023-08-17T08:47:56;21.70;80.10
22006;DHT22;11167;46.988;15.470;2023-08-17T08:50:01;21.70;80.10
22006;DHT22;11167;46.988;15.470;2023-08-17T08:52:03;21.70;80.30
22006;DHT22;11167;46.988;15.470;2023-08-17T08:54:05;21.70;80.30
22006;DHT22;11167;46.988;15.470;2023-08-17T08:56:10;21.70;80.70
22006;DHT22;11167;46.988;15.470;2023-08-17T08:58:12;21.70;80.30
22006;DHT22;11167;46.988;15.470;2023-08-17T09:00:13;21.80;80.40
22006;DHT22;11167;46.988;15.470;2023-08-17T09:02:15;21.80;80.40
22006;DHT22;11167;46.988;15.470;2023-08-17T09:04:16;21.80;80.50
22006;DHT22;11167;46.988;15.470;2023-08-17T09:06:18;21.90;80.60
22006;DHT22;11167;46.988;15.470;2023-08-17T09:08:24;21.90;80.60
22006;DHT22;11167;46.988;15.470;2023-08-17T09:10:25;21.90;80.70
22006;DHT22;11167;46.988;15.470;2023-08-17T09:12:26;21.90;80.70
22006;DHT22;11167;46.988;15.470;2023-08-17T09:14:27;21.90;80.80
22006;DHT22;11167;46.988;15.470;2023-08-17T09:16:28;21.90;80.80
22006;DHT22;11167;46.988;15.470;2023-08-17T09:18:29;21.90;80.90
22006;DHT22;11167;46.988;15.470;2023-08-17T09:20:36;22.00;81.10
22006;DHT22;11167;46.988;15.470;2023-08-17T09:22:41;22.00;81.20
22006;DHT22;11167;46.988;15.470;2023-08-17T09:24:42;22.00;81.20
22006;DHT22;11167;46.988;15.470;2023-08-17T09:26:43;22.10;81.30
22006;DHT22;11167;46.988;15.470;2023-08-17T09:28:44;22.10;81.30
22006;DHT22;11167;46.988;15.470;2023-08-17T09:30:57;22.10;81.30
22006;DHT22;11167;46.988;15.470;2023-08-17T09:33:01;22.10;81.40
22006;DHT22;11167;46.988;15.470;2023-08-17T09:35:05;22.10;81.50
22006;DHT22;11167;46.988;15.470;2023-08-17T09:37:06;22.20;81.50
22006;DHT22;11167;46.988;15.470;2023-08-17T09:39:08;22.20;81.60
22006;DHT22;11167;46.988;15.470;2023-08-17T09:41:09;22.20;81.60
22006;DHT22;11167;46.988;15.470;2023-08-17T09:43:10;22.20;82.40
22006;DHT22;11167;46.988;15.470;2023-08-17T09:45:10;22.30;81.60
22006;DHT22;11167;46.988;15.470;2023-08-17T09:47:11;22.30;81.60
22006;DHT22;11167;46.988;15.470;2023-08-17T09:49:12;22.30;81.60
22006;DHT22;11167;46.988;15.470;2023-08-17T09:51:16;22.30;81.60
22006;DHT22;11167;46.988;15.470;2023-08-17T09:53:17;22.30;81.60
22006;DHT22;11167;46.988;15.470;2023-08-17T09:55:19;22.40;81.70
22006;DHT22;11167;46.988;15.470;2023-08-17T09:57:20;22.40;81.80
22006;DHT22;11167;46.988;15.470;2023-08-17T09:59:21;22.40;82.00
22006;DHT22;11167;46.988;15.470;2023-08-17T10:01:24;22.50;81.80
22006;DHT22;11167;46.988;15.470;2023-08-17T10:03:26;22.50;81.90
22006;DHT22;11167;46.988;15.470;2023-08-17T10:05:28;22.50;82.00
22006;DHT22;11167;46.988;15.470;2023-08-17T10:07:30;22.50;81.90
22006;DHT22;11167;46.988;15.470;2023-08-17T10:09:34;22.60;82.10
22006;DHT22;11167;46.988;15.470;2023-08-17T10:11:35;22.60;82.00
22006;DHT22;11167;46.988;15.470;2023-08-17T10:14:39;22.60;81.90
22006;DHT22;11167;46.988;15.470;2023-08-17T10:20:17;22.70;82.10
22006;DHT22;11167;46.988;15.470;2023-08-17T10:24:38;22.80;82.30
22006;DHT22;11167;46.988;15.470;2023-08-17T10:26:40;22.80;82.10
22006;DHT22;11167;46.988;15.470;2023-08-17T10:28:41;22.80;82.20
22006;DHT22;11167;46.988;15.470;2023-08-17T10:30:42;22.80;82.30
22006;DHT22;11167;46.988;15.470;2023-08-17T10:32:43;22.90;82.30
22006;DHT22;11167;46.988;15.470;2023-08-17T10:34:46;22.90;82.30
22006;DHT22;11167;46.988;15.470;2023-08-17T10:36:48;22.90;83.10
22006;DHT22;11167;46.988;15.470;2023-08-17T10:39:34;22.90;82.30
22006;DHT22;11167;46.988;15.470;2023-08-17T10:41:40;23.00;82.30
22006;DHT22;11167;46.988;15.470;2023-08-17T10:42:58;23.00;82.30
22006;DHT22;11167;46.988;15.470;2023-08-17T10:44:59;23.10;82.30
22006;DHT22;11167;46.988;15.470;2023-08-17T10:47:18;23.10;82.30
22006;DHT22;11167;46.988;15.470;2023-08-17T10:49:05;23.10;82.20
22006;DHT22;11167;46.988;15.470;2023-08-17T10:51:06;23.10;82.20
22006;DHT22;11167;46.988;15.470;2023-08-17T10:53:11;23.20;82.30
22006;DHT22;11167;46.988;15.470;2023-08-17T10:55:12;23.20;82.30
22006;DHT22;11167;46.988;15.470;2023-08-17T10:57:29;23.20;82.40
22006;DHT22;11167;46.988;15.470;2023-08-17T11:00:36;23.20;82.30
22006;DHT22;11167;46.988;15.470;2023-08-17T11:01:55;23.30;82.40
22006;DHT22;11167;46.988;15.470;2023-08-17T11:08:38;23.30;82.20
22006;DHT22;11167;46.988;15.470;2023-08-17T11:10:38;23.40;82.20
22006;DHT22;11167;46.988;15.470;2023-08-17T11:12:40;23.40;82.20
22006;DHT22;11167;46.988;15.470;2023-08-17T11:14:44;23.50;82.40
22006;DHT22;11167;46.988;15.470;2023-08-17T11:16:46;23.50;82.40
22006;DHT22;11167;46.988;15.470;2023-08-17T11:18:47;23.50;82.40
22006;DHT22;11167;46.988;15.470;2023-08-17T11:20:49;23.50;82.40
22006;DHT22;11167;46.988;15.470;2023-08-17T11:22:50;23.60;83.10
22006;DHT22;11167;46.988;15.470;2023-08-17T11:24:51;23.60;82.60
22006;DHT22;11167;46.988;15.470;2023-08-17T11:26:52;23.70;82.60
22006;DHT22;11167;46.988;15.470;2023-08-17T11:28:53;23.70;82.60
22006;DHT22;11167;46.988;15.470;2023-08-17T11:30:57;23.70;82.60
22006;DHT22;11167;46.988;15.470;2023-08-17T11:32:59;23.80;82.60
22006;DHT22;11167;46.988;15.470;2023-08-17T11:35:01;23.80;82.60
22006;DHT22;11167;46.988;15.470;2023-08-17T11:37:02;23.80;82.60
22006;DHT22;11167;46.988;15.470;2023-08-17T11:39:04;23.90;82.60
22006;DHT22;11167;46.988;15.470;2023-08-17T11:41:05;23.90;82.60
22006;DHT22;11167;46.988;15.470;2023-08-17T11:43:08;23.90;82.70
22006;DHT22;11167;46.988;15.470;2023-08-17T11:45:09;24.00;82.70
22006;DHT22;11167;46.988;15.470;2023-08-17T11:47:10;24.00;82.80
22006;DHT22;11167;46.988;15.470;2023-08-17T11:49:12;24.00;82.70
22006;DHT22;11167;46.988;15.470;2023-08-17T11:51:13;24.10;82.80
22006;DHT22;11167;46.988;15.470;2023-08-17T11:53:14;24.10;82.70
22006;DHT22;11167;46.988;15.470;2023-08-17T11:55:15;24.20;82.70
22006;DHT22;11167;46.988;15.470;2023-08-17T11:57:18;24.20;82.70
22006;DHT22;11167;46.988;15.470;2023-08-17T11:59:19;24.20;82.60
22006;DHT22;11167;46.988;15.470;2023-08-17T12:01:20;24.20;82.60
22006;DHT22;11167;46.988;15.470;2023-08-17T12:03:21;24.30;82.60
22006;DHT22;11167;46.988;15.470;2023-08-17T12:05:22;24.30;82.50
22006;DHT22;11167;46.988;15.470;2023-08-17T12:07:24;24.30;82.50
22006;DHT22;11167;46.988;15.470;2023-08-17T12:09:25;24.40;82.60
22006;DHT22;11167;46.988;15.470;2023-08-17T12:11:26;24.40;82.50
22006;DHT22;11167;46.988;15.470;2023-08-17T12:13:30;24.40;82.50
22006;DHT22;11167;46.988;15.470;2023-08-17T12:15:32;24.40;82.40
22006;DHT22;11167;46.988;15.470;2023-08-17T12:17:33;24.40;82.50
22006;DHT22;11167;46.988;15.470;2023-08-17T12:19:34;24.50;82.60
22006;DHT22;11167;46.988;15.470;2023-08-17T12:21:35;24.60;82.60
22006;DHT22;11167;46.988;15.470;2023-08-17T12:23:36;24.60;82.60
22006;DHT22;11167;46.988;15.470;2023-08-17T12:25:37;24.60;82.60
22006;DHT22;11167;46.988;15.470;2023-08-17T12:27:38;24.60;82.50
22006;DHT22;11167;46.988;15.470;2023-08-17T12:29:46;24.60;82.50
22006;DHT22;11167;46.988;15.470;2023-08-17T12:31:47;24.70;82.50
22006;DHT22;11167;46.988;15.470;2023-08-17T12:33:48;24.70;82.50
22006;DHT22;11167;46.988;15.470;2023-08-17T12:35:49;24.80;82.50
22006;DHT22;11167;46.988;15.470;2023-08-17T12:37:51;24.80;82.60
22006;DHT22;11167;46.988;15.470;2023-08-17T12:39:52;24.80;82.50
22006;DHT22;11167;46.988;15.470;2023-08-17T12:41:53;24.90;82.60
22006;DHT22;11167;46.988;15.470;2023-08-17T12:43:53;24.90;82.50
22006;DHT22;11167;46.988;15.470;2023-08-17T12:45:55;24.90;82.50
22006;DHT22;11167;46.988;15.470;2023-08-17T12:47:56;25.00;82.50
22006;DHT22;11167;46.988;15.470;2023-08-17T12:49:57;25.00;82.40
22006;DHT22;11167;46.988;15.470;2023-08-17T12:51:58;25.00;82.40
22006;DHT22;11167;46.988;15.470;2023-08-17T12:53:59;25.00;82.40
22006;DHT22;11167;46.988;15.470;2023-08-17T12:56:00;25.10;82.40